Time,TemperatureF,DewpointF,PressureIn,WindDirection,WindDirectionDegrees,WindSpeedMPH,WindSpeedGustMPH,Humidity,HourlyPrecipIn,Conditions,Clouds,dailyrainin,SoftwareType,DateUTC
2013-06-18 00:06:00,51.6,44.0,29.95,SSE,163,0.0,1.0,76,0.00,,,0.00,weatherlink.com 1.10,2013-06-18 07:06:00,
2013-06-18 00:21:00,51.1,44.0,29.95,SSE,163,0.0,1.0,77,0.00,,,0.00,weatherlink.com 1.10,2013-06-18 07:21:00,
2013-06-18 00:36:00,50.1,44.0,29.95,SSE,163,0.0,0.0,79,0.00,,,0.00,weatherlink.com 1.10,2013-06-18 07:36:00,
2013-06-18 00:51:00,49.1,44.0,29.95,SSE,163,0.0,0.0,81,0.00,,,0.00,weatherlink.com 1.10,2013-06-18 07:51:00,
2013-06-18 01:06:00,48.4,44.0,29.95,SSE,163,0.0,0.0,83,0.00,,,0.00,weatherlink.com 1.10,2013-06-18 08:06:00,
2013-06-18 01:21:00,48.0,44.0,29.94,SSE,163,0.0,0.0,85,0.00,,,0.00,weatherlink.com 1.10,2013-06-18 08:21:00,
2013-06-18 01:36:00,47.9,44.0,29.94,SSE,163,0.0,0.0,85,0.00,,,0.00,weatherlink.com 1.10,2013-06-18 08:36:00,
2013-06-18 01:51:00,48.3,44.0,29.94,SSE,162,0.0,1.0,85,0.00,,,0.00,weatherlink.com 1.10,2013-06-18 08:51:00,
2013-06-18 02:06:00,48.3,44.0,29.93,SSE,163,0.0,0.0,85,0.00,,,0.00,weatherlink.com 1.10,2013-06-18 09:06:00,
2013-06-18 02:21:00,48.0,44.0,29.94,SSE,163,0.0,1.0,86,0.00,,,0.00,weatherlink.com 1.10,2013-06-18 09:21:00,
2013-06-18 02:36:00,47.9,44.0,29.93,SSE,164,0.0,1.0,86,0.00,,,0.00,weatherlink.com 1.10,2013-06-18 09:36:00,
2013-06-18 02:51:00,48.2,44.0,29.93,SSE,162,0.0,0.0,86,0.00,,,0.00,weatherlink.com 1.10,2013-06-18 09:51:00,
2013-06-18 03:06:00,48.4,44.0,29.93,SSE,163,0.0,0.0,86,0.00,,,0.00,weatherlink.com 1.10,2013-06-18 10:06:00,
2013-06-18 03:21:00,48.5,45.0,29.93,SSE,163,0.0,0.0,86,0.00,,,0.00,weatherlink.com 1.10,2013-06-18 10:21:00,
2013-06-18 03:36:00,48.6,45.0,29.93,SSE,163,0.0,0.0,87,0.00,,,0.00,weatherlink.com 1.10,2013-06-18 10:36:00,
2013-06-18 03:51:00,48.7,45.0,29.92,SSE,163,0.0,0.0,86,0.00,,,0.00,weatherlink.com 1.10,2013-06-18 10:51:00,
2013-06-18 04:06:00,48.5,44.0,29.92,SSE,163,0.0,0.0,85,0.00,,,0.00,weatherlink.com 1.10,2013-06-18 11:06:00,
2013-06-18 04:21:00,48.1,44.0,29.92,SSE,163,0.0,0.0,85,0.00,,,0.00,weatherlink.com 1.10,2013-06-18 11:21:00,
2013-06-18 04:36:00,48.1,44.0,29.92,SSE,158,0.0,1.0,85,0.00,,,0.00,weatherlink.com 1.10,2013-06-18 11:36:00,
2013-06-18 04:52:00,48.0,44.0,29.92,SSE,158,0.0,0.0,87,0.00,,,0.00,weatherlink.com 1.10,2013-06-18 11:52:00,
2013-06-18 05:07:00,48.1,45.0,29.92,SSE,158,0.0,0.0,88,0.00,,,0.00,weatherlink.com 1.10,2013-06-18 12:07:00,
2013-06-18 05:22:00,47.7,45.0,29.92,SSE,158,0.0,0.0,89,0.00,,,0.00,weatherlink.com 1.10,2013-06-18 12:22:00,
2013-06-18 05:37:00,46.9,44.0,29.92,SSE,158,0.0,0.0,89,0.00,,,0.00,weatherlink.com 1.10,2013-06-18 12:37:00,
2013-06-18 05:52:00,45.9,44.0,29.92,SSE,158,0.0,0.0,91,0.00,,,0.00,weatherlink.com 1.10,2013-06-18 12:52:00,
2013-06-18 06:07:00,45.7,44.0,29.92,SSE,158,0.0,0.0,92,0.00,,,0.00,weatherlink.com 1.10,2013-06-18 13:07:00,
2013-06-18 06:22:00,45.9,44.0,29.92,SSE,158,0.0,0.0,92,0.00,,,0.00,weatherlink.com 1.10,2013-06-18 13:22:00,
2013-06-18 06:37:00,46.6,44.0,29.92,SSE,158,0.0,0.0,91,0.00,,,0.00,weatherlink.com 1.10,2013-06-18 13:37:00,
2013-06-18 06:52:00,47.2,45.0,29.92,SSE,158,0.0,0.0,91,0.00,,,0.00,weatherlink.com 1.10,2013-06-18 13:52:00,
2013-06-18 07:07:00,47.8,45.0,29.92,SSE,158,0.0,0.0,90,0.00,,,0.00,weatherlink.com 1.10,2013-06-18 14:07:00,
2013-06-18 07:22:00,48.3,46.0,29.92,SSE,158,0.0,1.0,90,0.00,,,0.00,weatherlink.com 1.10,2013-06-18 14:22:00,
2013-06-18 07:37:00,48.8,45.0,29.92,SSE,158,0.0,0.0,88,0.00,,,0.00,weatherlink.com 1.10,2013-06-18 14:37:00,
2013-06-18 07:52:00,49.2,46.0,29.91,SSE,158,0.0,0.0,87,0.00,,,0.00,weatherlink.com 1.10,2013-06-18 14:52:00,
2013-06-18 08:07:00,49.7,45.0,29.91,SE,146,0.0,0.0,85,0.00,,,0.00,weatherlink.com 1.10,2013-06-18 15:07:00,
2013-06-18 08:22:00,49.9,45.0,29.91,SE,145,0.0,0.0,83,0.00,,,0.00,weatherlink.com 1.10,2013-06-18 15:22:00,
2013-06-18 08:37:00,50.3,45.0,29.92,SE,145,0.0,1.0,81,0.00,,,0.00,weatherlink.com 1.10,2013-06-18 15:37:00,
2013-06-18 08:52:00,50.7,45.0,29.91,SE,134,0.0,0.0,81,0.00,,,0.00,weatherlink.com 1.10,2013-06-18 15:52:00,
2013-06-18 09:07:00,50.8,45.0,29.91,SE,134,0.0,0.0,81,0.00,,,0.00,weatherlink.com 1.10,2013-06-18 16:07:00,
2013-06-18 09:22:00,51.3,46.0,29.91,SE,141,0.0,3.0,81,0.00,,,0.00,weatherlink.com 1.10,2013-06-18 16:22:00,
2013-06-18 09:37:00,52.5,44.0,29.91,ESE,108,0.0,3.0,74,0.00,,,0.00,weatherlink.com 1.10,2013-06-18 16:37:00,
2013-06-18 09:52:00,52.5,44.0,29.90,ESE,119,0.0,2.0,74,0.00,,,0.00,weatherlink.com 1.10,2013-06-18 16:52:00,
2013-06-18 10:07:00,52.5,44.0,29.90,South,190,2.0,3.0,73,0.00,,,0.00,weatherlink.com 1.10,2013-06-18 17:07:00,
2013-06-18 10:22:00,52.6,43.0,29.90,ESE,121,1.0,2.0,70,0.00,,,0.00,weatherlink.com 1.10,2013-06-18 17:22:00,
2013-06-18 10:37:00,56.1,44.0,29.89,SSE,159,0.0,1.0,65,0.00,,,0.00,weatherlink.com 1.10,2013-06-18 17:37:00,
2013-06-18 10:53:00,55.0,41.0,29.89,ESE,103,2.0,-999.0,60,-99.99,,,0.00,weatherlink.com 1.10,2013-06-18 17:53:00,
2013-06-18 11:08:00,54.5,42.0,29.89,South,170,1.0,4.0,62,0.00,,,0.00,weatherlink.com 1.10,2013-06-18 18:08:00,
2013-06-18 11:23:00,56.1,43.0,29.89,SE,128,1.0,3.0,61,0.00,,,0.00,weatherlink.com 1.10,2013-06-18 18:23:00,
2013-06-18 11:38:00,56.9,42.0,29.89,ESE,104,1.0,3.0,57,0.00,,,0.00,weatherlink.com 1.10,2013-06-18 18:38:00,
2013-06-18 12:08:00,58.4,43.0,29.88,ESE,122,1.0,4.0,56,0.00,,,0.00,weatherlink.com 1.10,2013-06-18 19:08:00,
2013-06-18 12:23:00,58.4,40.0,29.87,SSE,152,0.0,6.0,51,0.00,,,0.00,weatherlink.com 1.10,2013-06-18 19:23:00,
2013-06-18 12:38:00,60.1,40.0,29.87,ESE,105,2.0,4.0,47,0.00,,,0.00,weatherlink.com 1.10,2013-06-18 19:38:00,
2013-06-18 12:53:00,60.1,45.0,29.86,SW,221,2.0,4.0,58,0.00,,,0.00,weatherlink.com 1.10,2013-06-18 19:53:00,
2013-06-18 13:08:00,57.8,47.0,29.86,SSE,154,0.0,3.0,68,0.00,,,0.00,weatherlink.com 1.10,2013-06-18 20:08:00,
2013-06-18 13:23:00,54.1,47.0,29.88,ESE,115,1.0,7.0,76,0.00,,,0.00,weatherlink.com 1.10,2013-06-18 20:23:00,
2013-06-18 13:38:00,54.3,49.0,29.87,SSE,162,1.0,2.0,81,0.00,,,0.00,weatherlink.com 1.10,2013-06-18 20:38:00,
2013-06-18 13:53:00,56.0,50.0,29.87,South,169,3.0,6.0,80,0.00,,,0.00,weatherlink.com 1.10,2013-06-18 20:53:00,
2013-06-18 14:08:00,56.0,46.0,29.87,SE,128,0.0,3.0,68,0.00,,,0.00,weatherlink.com 1.10,2013-06-18 21:08:00,
2013-06-18 14:23:00,58.7,50.0,29.86,SSE,155,0.0,5.0,72,0.00,,,0.00,weatherlink.com 1.10,2013-06-18 21:23:00,
2013-06-18 14:38:00,59.8,47.0,29.86,SSE,156,0.0,3.0,64,0.00,,,0.00,weatherlink.com 1.10,2013-06-18 21:38:00,
2013-06-18 14:53:00,59.1,46.0,29.86,SSE,160,0.0,5.0,62,0.00,,,0.00,weatherlink.com 1.10,2013-06-18 21:53:00,
2013-06-18 15:08:00,58.7,46.0,29.86,SE,139,2.0,6.0,63,0.00,,,0.00,weatherlink.com 1.10,2013-06-18 22:08:00,
2013-06-18 15:23:00,57.1,45.0,29.86,South,176,1.0,3.0,64,0.00,,,0.00,weatherlink.com 1.10,2013-06-18 22:23:00,
2013-06-18 15:38:00,57.0,46.0,29.86,SSE,152,0.0,2.0,66,0.00,,,0.00,weatherlink.com 1.10,2013-06-18 22:38:00,
2013-06-18 15:53:00,57.0,44.0,29.86,SSE,168,0.0,3.0,62,0.00,,,0.00,weatherlink.com 1.10,2013-06-18 22:53:00,
2013-06-18 16:08:00,57.0,44.0,29.85,SSE,153,1.0,2.0,62,0.00,,,0.00,weatherlink.com 1.10,2013-06-18 23:08:00,
2013-06-18 16:23:00,57.9,44.0,29.86,ESE,117,1.0,3.0,61,0.00,,,0.00,weatherlink.com 1.10,2013-06-18 23:23:00,
2013-06-18 16:38:00,58.8,44.0,29.86,South,170,1.0,4.0,58,0.00,,,0.00,weatherlink.com 1.10,2013-06-18 23:38:00,
2013-06-18 16:53:00,57.7,44.0,29.86,SE,137,0.0,2.0,61,0.00,,,0.00,weatherlink.com 1.10,2013-06-18 23:53:00,
2013-06-18 17:08:00,56.6,44.0,29.86,SSE,165,1.0,2.0,63,0.00,,,0.00,weatherlink.com 1.10,2013-06-19 00:08:00,
2013-06-18 17:23:00,56.6,43.0,29.85,SE,145,0.0,2.0,61,0.00,,,0.00,weatherlink.com 1.10,2013-06-19 00:23:00,
2013-06-18 17:38:00,56.4,39.0,29.85,ESE,108,2.0,3.0,53,0.00,,,0.00,weatherlink.com 1.10,2013-06-19 00:38:00,
2013-06-18 17:53:00,56.4,38.0,29.84,SSE,149,0.0,4.0,51,0.00,,,0.00,weatherlink.com 1.10,2013-06-19 00:53:00,
2013-06-18 18:08:00,57.2,39.0,29.84,SE,131,1.0,6.0,51,0.00,,,0.00,weatherlink.com 1.10,2013-06-19 01:08:00,
2013-06-18 18:23:00,56.6,41.0,29.84,South,172,0.0,3.0,57,0.00,,,0.00,weatherlink.com 1.10,2013-06-19 01:23:00,
2013-06-18 18:38:00,55.2,43.0,29.84,SSE,149,0.0,2.0,63,0.00,,,0.00,weatherlink.com 1.10,2013-06-19 01:38:00,
2013-06-18 18:53:00,55.5,42.0,29.85,East,97,0.0,3.0,61,0.00,,,0.00,weatherlink.com 1.10,2013-06-19 01:53:00,
2013-06-18 19:08:00,54.6,43.0,29.86,SSE,162,0.0,2.0,64,0.00,,,0.00,weatherlink.com 1.10,2013-06-19 02:08:00,
2013-06-18 19:23:00,53.7,39.0,29.85,ESE,103,2.0,2.0,58,0.00,,,0.00,weatherlink.com 1.10,2013-06-19 02:23:00,
2013-06-18 19:38:00,52.5,39.0,29.86,SE,143,0.0,2.0,60,0.00,,,0.00,weatherlink.com 1.10,2013-06-19 02:38:00,
2013-06-18 19:53:00,51.7,38.0,29.86,South,177,0.0,3.0,60,0.00,,,0.00,weatherlink.com 1.10,2013-06-19 02:53:00,
2013-06-18 20:08:00,51.2,39.0,29.86,SSE,157,0.0,1.0,63,0.00,,,0.00,weatherlink.com 1.10,2013-06-19 03:08:00,
2013-06-18 20:23:00,50.5,39.0,29.87,SSE,155,0.0,1.0,65,0.00,,,0.00,weatherlink.com 1.10,2013-06-19 03:23:00,
2013-06-18 20:38:00,49.9,38.0,29.87,SSE,155,0.0,1.0,65,0.00,,,0.00,weatherlink.com 1.10,2013-06-19 03:38:00,
2013-06-18 20:53:00,49.4,38.0,29.88,SSE,161,1.0,2.0,65,0.00,,,0.00,weatherlink.com 1.10,2013-06-19 03:53:00,
2013-06-18 21:08:00,49.1,39.0,29.88,SE,135,0.0,1.0,68,0.00,,,0.00,weatherlink.com 1.10,2013-06-19 04:08:00,
2013-06-18 21:23:00,48.5,39.0,29.89,SE,130,0.0,3.0,70,0.00,,,0.00,weatherlink.com 1.10,2013-06-19 04:23:00,
2013-06-18 21:38:00,48.0,39.0,29.89,ESE,117,0.0,2.0,71,0.00,,,0.00,weatherlink.com 1.10,2013-06-19 04:38:00,
2013-06-18 21:53:00,47.8,39.0,29.89,SSE,167,0.0,1.0,72,0.00,,,0.00,weatherlink.com 1.10,2013-06-19 04:53:00,
2013-06-18 22:08:00,47.6,40.0,29.88,ESE,113,0.0,2.0,74,0.00,,,0.00,weatherlink.com 1.10,2013-06-19 05:08:00,
2013-06-18 22:23:00,47.0,40.0,29.88,SE,127,1.0,4.0,76,0.00,,,0.00,weatherlink.com 1.10,2013-06-19 05:23:00,
2013-06-18 22:38:00,46.7,39.0,29.89,ESE,110,1.0,2.0,75,0.00,,,0.00,weatherlink.com 1.10,2013-06-19 05:38:00,
2013-06-18 22:53:00,46.4,40.0,29.89,ESE,120,0.0,1.0,78,0.00,,,0.00,weatherlink.com 1.10,2013-06-19 05:53:00,
2013-06-18 23:08:00,46.2,39.0,29.89,ESE,120,0.0,1.0,76,0.00,,,0.00,weatherlink.com 1.10,2013-06-19 06:08:00,
2013-06-18 23:23:00,46.0,39.0,29.89,ESE,120,0.0,1.0,76,0.00,,,0.00,weatherlink.com 1.10,2013-06-19 06:23:00,
2013-06-18 23:38:00,46.0,40.0,29.89,SE,134,0.0,0.0,78,0.00,,,0.00,weatherlink.com 1.10,2013-06-19 06:38:00,
2013-06-18 23:53:00,45.8,40.0,29.89,SE,134,0.0,1.0,79,0.00,,,0.00,weatherlink.com 1.10,2013-06-19 06:53:00,